sensor_id;sensor_type;location;lat;lon;timestamp;P1;durP1;ratioP1;P2;durP2;ratioP2
4744;SDS011;2386;42.138;24.746;2022-07-23T00:00:39;13.03;;;8.37;;
4744;SDS011;2386;42.138;24.746;2022-07-23T00:03:05;13.60;;;7.50;;
4744;SDS011;2386;42.138;24.746;2022-07-23T00:05:30;11.40;;;6.73;;
4744;SDS011;2386;42.138;24.746;2022-07-23T00:07:56;10.90;;;7.17;;
4744;SDS011;2386;42.138;24.746;2022-07-23T00:10:21;12.50;;;7.40;;
4744;SDS011;2386;42.138;24.746;2022-07-23T00:12:47;12.20;;;7.77;;
4744;SDS011;2386;42.138;24.746;2022-07-23T00:15:12;16.07;;;7.90;;
4744;SDS011;2386;42.138;24.746;2022-07-23T00:17:38;17.53;;;7.23;;
4744;SDS011;2386;42.138;24.746;2022-07-23T00:20:03;9.70;;;7.80;;
4744;SDS011;2386;42.138;24.746;2022-07-23T00:22:29;11.43;;;7.73;;
4744;SDS011;2386;42.138;24.746;2022-07-23T00:24:55;15.20;;;8.03;;
4744;SDS011;2386;42.138;24.746;2022-07-23T00:27:21;13.70;;;7.97;;
4744;SDS011;2386;42.138;24.746;2022-07-23T00:29:47;14.40;;;8.70;;
4744;SDS011;2386;42.138;24.746;2022-07-23T00:32:12;27.53;;;9.00;;
4744;SDS011;2386;42.138;24.746;2022-07-23T00:34:37;16.53;;;10.70;;
4744;SDS011;2386;42.138;24.746;2022-07-23T00:37:03;21.90;;;14.53;;
4744;SDS011;2386;42.138;24.746;2022-07-23T00:39:28;22.73;;;15.00;;
4744;SDS011;2386;42.138;24.746;2022-07-23T00:41:53;24.90;;;15.80;;
4744;SDS011;2386;42.138;24.746;2022-07-23T00:46:46;38.27;;;20.83;;
4744;SDS011;2386;42.138;24.746;2022-07-23T00:49:14;37.67;;;20.77;;
4744;SDS011;2386;42.138;24.746;2022-07-23T00:51:39;39.43;;;19.47;;
4744;SDS011;2386;42.138;24.746;2022-07-23T00:54:05;29.83;;;18.70;;
4744;SDS011;2386;42.138;24.746;2022-07-23T00:56:30;30.43;;;19.10;;
4744;SDS011;2386;42.138;24.746;2022-07-23T00:58:56;32.80;;;18.73;;
4744;SDS011;2386;42.138;24.746;2022-07-23T01:01:22;25.90;;;15.13;;
4744;SDS011;2386;42.138;24.746;2022-07-23T01:03:47;25.63;;;14.30;;
4744;SDS011;2386;42.138;24.746;2022-07-23T01:06:13;21.73;;;12.87;;
4744;SDS011;2386;42.138;24.746;2022-07-23T01:08:39;22.27;;;14.93;;
4744;SDS011;2386;42.138;24.746;2022-07-23T01:11:04;20.50;;;14.80;;
4744;SDS011;2386;42.138;24.746;2022-07-23T01:13:30;21.43;;;14.63;;
4744;SDS011;2386;42.138;24.746;2022-07-23T01:15:56;19.77;;;15.10;;
4744;SDS011;2386;42.138;24.746;2022-07-23T01:18:21;31.93;;;13.00;;
4744;SDS011;2386;42.138;24.746;2022-07-23T01:20:46;19.13;;;12.70;;
4744;SDS011;2386;42.138;24.746;2022-07-23T01:23:14;24.73;;;13.20;;
4744;SDS011;2386;42.138;24.746;2022-07-23T01:25:47;20.33;;;13.57;;
4744;SDS011;2386;42.138;24.746;2022-07-23T01:28:18;23.80;;;12.20;;
4744;SDS011;2386;42.138;24.746;2022-07-23T01:30:44;21.87;;;13.33;;
4744;SDS011;2386;42.138;24.746;2022-07-23T01:33:10;22.30;;;11.90;;
4744;SDS011;2386;42.138;24.746;2022-07-23T01:35:36;26.40;;;12.00;;
4744;SDS011;2386;42.138;24.746;2022-07-23T01:38:01;20.50;;;11.53;;
4744;SDS011;2386;42.138;24.746;2022-07-23T01:40:27;16.20;;;10.83;;
4744;SDS011;2386;42.138;24.746;2022-07-23T01:42:52;19.17;;;12.80;;
4744;SDS011;2386;42.138;24.746;2022-07-23T01:45:17;20.17;;;13.07;;
4744;SDS011;2386;42.138;24.746;2022-07-23T01:47:43;21.43;;;14.03;;
4744;SDS011;2386;42.138;24.746;2022-07-23T01:50:09;29.80;;;14.93;;
4744;SDS011;2386;42.138;24.746;2022-07-23T01:52:34;23.67;;;14.87;;
4744;SDS011;2386;42.138;24.746;2022-07-23T01:55:00;29.53;;;17.17;;
4744;SDS011;2386;42.138;24.746;2022-07-23T01:57:25;28.33;;;17.47;;
4744;SDS011;2386;42.138;24.746;2022-07-23T01:59:51;26.27;;;17.40;;
4744;SDS011;2386;42.138;24.746;2022-07-23T02:02:16;29.57;;;16.77;;
4744;SDS011;2386;42.138;24.746;2022-07-23T02:04:42;29.03;;;17.63;;
4744;SDS011;2386;42.138;24.746;2022-07-23T02:07:08;28.50;;;18.37;;
4744;SDS011;2386;42.138;24.746;2022-07-23T02:09:34;27.90;;;17.23;;
4744;SDS011;2386;42.138;24.746;2022-07-23T02:11:59;27.13;;;18.00;;
4744;SDS011;2386;42.138;24.746;2022-07-23T02:14:25;27.30;;;16.70;;
4744;SDS011;2386;42.138;24.746;2022-07-23T02:16:51;28.50;;;17.53;;
4744;SDS011;2386;42.138;24.746;2022-07-23T02:19:17;34.07;;;17.37;;
4744;SDS011;2386;42.138;24.746;2022-07-23T02:21:42;26.50;;;17.10;;
4744;SDS011;2386;42.138;24.746;2022-07-23T02:24:08;24.37;;;16.03;;
4744;SDS011;2386;42.138;24.746;2022-07-23T02:26:33;41.57;;;17.07;;
4744;SDS011;2386;42.138;24.746;2022-07-23T02:29:00;27.93;;;17.67;;
4744;SDS011;2386;42.138;24.746;2022-07-23T02:31:27;33.53;;;17.07;;
4744;SDS011;2386;42.138;24.746;2022-07-23T02:33:53;24.60;;;17.27;;
4744;SDS011;2386;42.138;24.746;2022-07-23T02:36:19;32.33;;;16.50;;
4744;SDS011;2386;42.138;24.746;2022-07-23T02:38:44;28.43;;;17.20;;
4744;SDS011;2386;42.138;24.746;2022-07-23T02:41:09;32.40;;;16.30;;
4744;SDS011;2386;42.138;24.746;2022-07-23T02:43:35;24.70;;;16.50;;
4744;SDS011;2386;42.138;24.746;2022-07-23T02:46:00;31.10;;;15.93;;
4744;SDS011;2386;42.138;24.746;2022-07-23T02:48:26;28.77;;;15.03;;
4744;SDS011;2386;42.138;24.746;2022-07-23T02:50:51;36.73;;;14.60;;
4744;SDS011;2386;42.138;24.746;2022-07-23T02:53:17;22.50;;;13.93;;
4744;SDS011;2386;42.138;24.746;2022-07-23T02:55:43;29.10;;;13.90;;
4744;SDS011;2386;42.138;24.746;2022-07-23T02:58:08;26.40;;;13.17;;
4744;SDS011;2386;42.138;24.746;2022-07-23T03:00:33;23.83;;;12.57;;
4744;SDS011;2386;42.138;24.746;2022-07-23T03:02:59;19.33;;;13.27;;
4744;SDS011;2386;42.138;24.746;2022-07-23T03:05:24;22.40;;;13.40;;
4744;SDS011;2386;42.138;24.746;2022-07-23T03:07:50;22.83;;;13.10;;
4744;SDS011;2386;42.138;24.746;2022-07-23T03:10:15;30.03;;;12.70;;
4744;SDS011;2386;42.138;24.746;2022-07-23T03:12:41;30.53;;;13.40;;
4744;SDS011;2386;42.138;24.746;2022-07-23T03:15:06;18.20;;;11.80;;
4744;SDS011;2386;42.138;24.746;2022-07-23T03:17:32;17.90;;;12.30;;
4744;SDS011;2386;42.138;24.746;2022-07-23T03:19:58;20.93;;;12.83;;
4744;SDS011;2386;42.138;24.746;2022-07-23T03:22:23;20.13;;;12.57;;
4744;SDS011;2386;42.138;24.746;2022-07-23T03:24:49;18.73;;;11.97;;
4744;SDS011;2386;42.138;24.746;2022-07-23T03:27:23;16.83;;;11.57;;
4744;SDS011;2386;42.138;24.746;2022-07-23T03:29:52;17.93;;;11.57;;
4744;SDS011;2386;42.138;24.746;2022-07-23T03:32:19;21.80;;;10.63;;
4744;SDS011;2386;42.138;24.746;2022-07-23T03:34:45;16.83;;;10.87;;
4744;SDS011;2386;42.138;24.746;2022-07-23T03:37:10;20.90;;;10.77;;
4744;SDS011;2386;42.138;24.746;2022-07-23T03:39:36;14.73;;;10.00;;
4744;SDS011;2386;42.138;24.746;2022-07-23T03:42:01;15.97;;;9.93;;
4744;SDS011;2386;42.138;24.746;2022-07-23T03:44:27;17.47;;;10.80;;
4744;SDS011;2386;42.138;24.746;2022-07-23T03:49:49;19.07;;;10.70;;
4744;SDS011;2386;42.138;24.746;2022-07-23T03:52:14;17.90;;;10.00;;
4744;SDS011;2386;42.138;24.746;2022-07-23T03:54:40;17.13;;;9.73;;
4744;SDS011;2386;42.138;24.746;2022-07-23T03:57:05;25.70;;;9.87;;
4744;SDS011;2386;42.138;24.746;2022-07-23T03:59:30;13.60;;;10.30;;
4744;SDS011;2386;42.138;24.746;2022-07-23T04:01:56;16.80;;;10.70;;
4744;SDS011;2386;42.138;24.746;2022-07-23T04:04:21;17.53;;;9.90;;
4744;SDS011;2386;42.138;24.746;2022-07-23T04:06:47;12.60;;;9.60;;
4744;SDS011;2386;42.138;24.746;2022-07-23T04:09:12;21.43;;;10.23;;
4744;SDS011;2386;42.138;24.746;2022-07-23T04:11:38;13.17;;;9.63;;
4744;SDS011;2386;42.138;24.746;2022-07-23T04:14:03;19.03;;;10.97;;
4744;SDS011;2386;42.138;24.746;2022-07-23T04:16:29;17.13;;;10.83;;
4744;SDS011;2386;42.138;24.746;2022-07-23T04:18:56;18.70;;;11.53;;
4744;SDS011;2386;42.138;24.746;2022-07-23T04:21:22;16.90;;;10.70;;
4744;SDS011;2386;42.138;24.746;2022-07-23T04:23:50;30.10;;;13.43;;
4744;SDS011;2386;42.138;24.746;2022-07-23T04:26:16;18.23;;;11.53;;
4744;SDS011;2386;42.138;24.746;2022-07-23T04:28:41;23.30;;;11.73;;
4744;SDS011;2386;42.138;24.746;2022-07-23T04:31:07;20.20;;;11.43;;
4744;SDS011;2386;42.138;24.746;2022-07-23T04:33:33;26.63;;;12.00;;
4744;SDS011;2386;42.138;24.746;2022-07-23T04:35:58;21.40;;;11.73;;
4744;SDS011;2386;42.138;24.746;2022-07-23T04:38:23;20.90;;;12.93;;
4744;SDS011;2386;42.138;24.746;2022-07-23T04:40:49;20.43;;;11.93;;
4744;SDS011;2386;42.138;24.746;2022-07-23T04:43:14;17.80;;;11.67;;
4744;SDS011;2386;42.138;24.746;2022-07-23T04:45:40;20.73;;;12.47;;
4744;SDS011;2386;42.138;24.746;2022-07-23T04:48:06;29.77;;;13.60;;
4744;SDS011;2386;42.138;24.746;2022-07-23T04:50:32;18.67;;;11.93;;
4744;SDS011;2386;42.138;24.746;2022-07-23T04:52:57;21.43;;;12.60;;
4744;SDS011;2386;42.138;24.746;2022-07-23T04:55:22;21.70;;;12.43;;
4744;SDS011;2386;42.138;24.746;2022-07-23T04:57:48;21.93;;;13.70;;
4744;SDS011;2386;42.138;24.746;2022-07-23T05:00:14;27.70;;;13.40;;
4744;SDS011;2386;42.138;24.746;2022-07-23T05:02:39;24.30;;;12.77;;
4744;SDS011;2386;42.138;24.746;2022-07-23T05:05:05;16.50;;;11.90;;
4744;SDS011;2386;42.138;24.746;2022-07-23T05:07:34;21.17;;;14.03;;
4744;SDS011;2386;42.138;24.746;2022-07-23T05:09:59;22.13;;;14.10;;
4744;SDS011;2386;42.138;24.746;2022-07-23T05:12:24;25.70;;;12.83;;
4744;SDS011;2386;42.138;24.746;2022-07-23T05:14:50;25.00;;;13.90;;
4744;SDS011;2386;42.138;24.746;2022-07-23T05:17:16;21.37;;;13.20;;
4744;SDS011;2386;42.138;24.746;2022-07-23T05:19:42;21.23;;;13.37;;
4744;SDS011;2386;42.138;24.746;2022-07-23T05:22:07;22.70;;;13.23;;
4744;SDS011;2386;42.138;24.746;2022-07-23T05:24:32;21.90;;;12.90;;
4744;SDS011;2386;42.138;24.746;2022-07-23T05:26:58;24.60;;;13.50;;
4744;SDS011;2386;42.138;24.746;2022-07-23T05:29:23;24.40;;;14.10;;
4744;SDS011;2386;42.138;24.746;2022-07-23T05:31:48;24.73;;;12.33;;
4744;SDS011;2386;42.138;24.746;2022-07-23T05:34:15;27.63;;;16.83;;
4744;SDS011;2386;42.138;24.746;2022-07-23T05:36:40;22.60;;;13.67;;
4744;SDS011;2386;42.138;24.746;2022-07-23T05:39:05;21.13;;;12.77;;
4744;SDS011;2386;42.138;24.746;2022-07-23T05:41:31;21.03;;;13.83;;
4744;SDS011;2386;42.138;24.746;2022-07-23T05:43:56;19.87;;;12.70;;
4744;SDS011;2386;42.138;24.746;2022-07-23T05:46:22;27.80;;;12.73;;
4744;SDS011;2386;42.138;24.746;2022-07-23T05:48:47;24.57;;;12.63;;
4744;SDS011;2386;42.138;24.746;2022-07-23T05:51:23;20.10;;;13.63;;
4744;SDS011;2386;42.138;24.746;2022-07-23T05:53:49;18.77;;;12.00;;
4744;SDS011;2386;42.138;24.746;2022-07-23T05:56:15;24.43;;;13.17;;
4744;SDS011;2386;42.138;24.746;2022-07-23T05:58:41;21.57;;;12.23;;
4744;SDS011;2386;42.138;24.746;2022-07-23T06:01:06;23.97;;;12.37;;
4744;SDS011;2386;42.138;24.746;2022-07-23T06:03:32;23.97;;;13.00;;
4744;SDS011;2386;42.138;24.746;2022-07-23T06:05:57;16.50;;;12.43;;
4744;SDS011;2386;42.138;24.746;2022-07-23T06:08:23;20.73;;;14.63;;
4744;SDS011;2386;42.138;24.746;2022-07-23T06:10:48;19.77;;;13.20;;
4744;SDS011;2386;42.138;24.746;2022-07-23T06:13:16;24.20;;;14.33;;
4744;SDS011;2386;42.138;24.746;2022-07-23T06:15:42;27.57;;;14.30;;
4744;SDS011;2386;42.138;24.746;2022-07-23T06:18:08;28.97;;;13.80;;
4744;SDS011;2386;42.138;24.746;2022-07-23T06:20:33;16.33;;;12.00;;
4744;SDS011;2386;42.138;24.746;2022-07-23T06:22:58;19.87;;;12.80;;
4744;SDS011;2386;42.138;24.746;2022-07-23T06:25:24;20.70;;;11.80;;
4744;SDS011;2386;42.138;24.746;2022-07-23T06:27:49;27.57;;;12.10;;
4744;SDS011;2386;42.138;24.746;2022-07-23T06:30:15;18.70;;;12.07;;
4744;SDS011;2386;42.138;24.746;2022-07-23T06:32:42;21.20;;;12.40;;
4744;SDS011;2386;42.138;24.746;2022-07-23T06:35:08;21.23;;;11.40;;
4744;SDS011;2386;42.138;24.746;2022-07-23T06:37:34;18.60;;;9.87;;
4744;SDS011;2386;42.138;24.746;2022-07-23T06:39:59;31.13;;;10.60;;
4744;SDS011;2386;42.138;24.746;2022-07-23T06:42:25;20.87;;;9.63;;
4744;SDS011;2386;42.138;24.746;2022-07-23T06:44:50;20.33;;;9.77;;
4744;SDS011;2386;42.138;24.746;2022-07-23T06:47:15;13.53;;;9.40;;
4744;SDS011;2386;42.138;24.746;2022-07-23T06:49:41;20.07;;;10.03;;
4744;SDS011;2386;42.138;24.746;2022-07-23T06:52:07;25.63;;;9.30;;
4744;SDS011;2386;42.138;24.746;2022-07-23T06:54:33;23.20;;;8.37;;
4744;SDS011;2386;42.138;24.746;2022-07-23T06:56:58;14.67;;;7.97;;
4744;SDS011;2386;42.138;24.746;2022-07-23T06:59:24;20.33;;;8.53;;
4744;SDS011;2386;42.138;24.746;2022-07-23T07:01:49;14.60;;;8.73;;
4744;SDS011;2386;42.138;24.746;2022-07-23T07:04:15;15.97;;;8.00;;
4744;SDS011;2386;42.138;24.746;2022-07-23T07:06:40;22.33;;;8.23;;
4744;SDS011;2386;42.138;24.746;2022-07-23T07:09:06;23.77;;;8.40;;
4744;SDS011;2386;42.138;24.746;2022-07-23T07:11:31;25.80;;;10.17;;
4744;SDS011;2386;42.138;24.746;2022-07-23T07:13:57;13.17;;;7.73;;
4744;SDS011;2386;42.138;24.746;2022-07-23T07:16:23;33.33;;;8.40;;
4744;SDS011;2386;42.138;24.746;2022-07-23T07:18:48;15.73;;;7.80;;
4744;SDS011;2386;42.138;24.746;2022-07-23T07:21:13;14.20;;;8.07;;
4744;SDS011;2386;42.138;24.746;2022-07-23T07:23:39;16.00;;;8.40;;
4744;SDS011;2386;42.138;24.746;2022-07-23T07:26:05;14.80;;;7.60;;
4744;SDS011;2386;42.138;24.746;2022-07-23T07:28:30;13.00;;;9.30;;
4744;SDS011;2386;42.138;24.746;2022-07-23T07:30:56;11.87;;;7.10;;
4744;SDS011;2386;42.138;24.746;2022-07-23T07:33:21;12.90;;;6.80;;
4744;SDS011;2386;42.138;24.746;2022-07-23T07:35:47;17.90;;;7.40;;
4744;SDS011;2386;42.138;24.746;2022-07-23T07:38:12;25.13;;;7.53;;
4744;SDS011;2386;42.138;24.746;2022-07-23T07:40:38;11.73;;;7.20;;
4744;SDS011;2386;42.138;24.746;2022-07-23T07:43:03;23.53;;;7.63;;
4744;SDS011;2386;42.138;24.746;2022-07-23T07:45:29;9.13;;;7.20;;
4744;SDS011;2386;42.138;24.746;2022-07-23T07:47:55;14.27;;;8.40;;
4744;SDS011;2386;42.138;24.746;2022-07-23T07:50:21;18.43;;;7.50;;
4744;SDS011;2386;42.138;24.746;2022-07-23T07:52:47;14.17;;;7.43;;
4744;SDS011;2386;42.138;24.746;2022-07-23T07:55:13;17.20;;;7.70;;
4744;SDS011;2386;42.138;24.746;2022-07-23T07:57:39;20.57;;;7.27;;
4744;SDS011;2386;42.138;24.746;2022-07-23T08:00:05;14.73;;;9.43;;
4744;SDS011;2386;42.138;24.746;2022-07-23T08:02:42;18.53;;;8.07;;
4744;SDS011;2386;42.138;24.746;2022-07-23T08:05:12;16.77;;;7.30;;
4744;SDS011;2386;42.138;24.746;2022-07-23T08:07:41;17.73;;;6.73;;
4744;SDS011;2386;42.138;24.746;2022-07-23T08:10:07;8.27;;;6.77;;
4744;SDS011;2386;42.138;24.746;2022-07-23T08:12:45;8.37;;;6.87;;
4744;SDS011;2386;42.138;24.746;2022-07-23T08:15:13;12.10;;;7.77;;
4744;SDS011;2386;42.138;24.746;2022-07-23T08:17:40;19.70;;;9.73;;
4744;SDS011;2386;42.138;24.746;2022-07-23T08:20:07;18.50;;;12.03;;
4744;SDS011;2386;42.138;24.746;2022-07-23T08:22:49;15.50;;;10.40;;
4744;SDS011;2386;42.138;24.746;2022-07-23T08:25:19;14.87;;;8.30;;
4744;SDS011;2386;42.138;24.746;2022-07-23T08:27:52;12.13;;;7.13;;
4744;SDS011;2386;42.138;24.746;2022-07-23T08:30:18;13.53;;;7.10;;
4744;SDS011;2386;42.138;24.746;2022-07-23T08:32:51;17.80;;;7.47;;
4744;SDS011;2386;42.138;24.746;2022-07-23T08:35:17;16.10;;;7.83;;
4744;SDS011;2386;42.138;24.746;2022-07-23T08:37:46;14.03;;;7.03;;
4744;SDS011;2386;42.138;24.746;2022-07-23T08:40:12;11.17;;;6.87;;
4744;SDS011;2386;42.138;24.746;2022-07-23T08:42:38;13.63;;;7.07;;
4744;SDS011;2386;42.138;24.746;2022-07-23T08:45:04;13.27;;;6.00;;
4744;SDS011;2386;42.138;24.746;2022-07-23T08:47:32;16.50;;;7.00;;
4744;SDS011;2386;42.138;24.746;2022-07-23T08:49:58;22.63;;;7.17;;
4744;SDS011;2386;42.138;24.746;2022-07-23T08:52:24;11.07;;;7.03;;
4744;SDS011;2386;42.138;24.746;2022-07-23T08:54:50;16.63;;;7.03;;
4744;SDS011;2386;42.138;24.746;2022-07-23T08:57:16;13.17;;;6.40;;
4744;SDS011;2386;42.138;24.746;2022-07-23T08:59:41;12.00;;;6.40;;
4744;SDS011;2386;42.138;24.746;2022-07-23T09:02:07;16.37;;;6.53;;
4744;SDS011;2386;42.138;24.746;2022-07-23T09:04:32;10.80;;;6.80;;
4744;SDS011;2386;42.138;24.746;2022-07-23T09:06:58;11.93;;;6.40;;
4744;SDS011;2386;42.138;24.746;2022-07-23T09:09:24;12.77;;;6.87;;
4744;SDS011;2386;42.138;24.746;2022-07-23T09:12:08;15.97;;;6.23;;
4744;SDS011;2386;42.138;24.746;2022-07-23T09:14:42;9.80;;;6.07;;
4744;SDS011;2386;42.138;24.746;2022-07-23T09:17:27;10.00;;;6.47;;
4744;SDS011;2386;42.138;24.746;2022-07-23T09:22:37;13.90;;;6.63;;
4744;SDS011;2386;42.138;24.746;2022-07-23T09:25:16;10.60;;;6.40;;
4744;SDS011;2386;42.138;24.746;2022-07-23T09:27:50;11.40;;;7.33;;
4744;SDS011;2386;42.138;24.746;2022-07-23T09:30:27;13.03;;;6.10;;
4744;SDS011;2386;42.138;24.746;2022-07-23T09:33:06;12.30;;;6.23;;
4744;SDS011;2386;42.138;24.746;2022-07-23T09:35:53;10.87;;;6.37;;
4744;SDS011;2386;42.138;24.746;2022-07-23T09:38:21;9.33;;;5.50;;
4744;SDS011;2386;42.138;24.746;2022-07-23T09:41:05;9.80;;;6.33;;
4744;SDS011;2386;42.138;24.746;2022-07-23T09:43:34;9.43;;;5.43;;
4744;SDS011;2386;42.138;24.746;2022-07-23T09:46:16;12.00;;;6.20;;
4744;SDS011;2386;42.138;24.746;2022-07-23T09:48:50;12.67;;;5.40;;
4744;SDS011;2386;42.138;24.746;2022-07-23T09:51:16;13.67;;;6.00;;
4744;SDS011;2386;42.138;24.746;2022-07-23T09:53:57;10.30;;;6.00;;
4744;SDS011;2386;42.138;24.746;2022-07-23T09:56:23;9.90;;;5.27;;
4744;SDS011;2386;42.138;24.746;2022-07-23T09:58:52;16.77;;;6.80;;
4744;SDS011;2386;42.138;24.746;2022-07-23T10:01:27;12.17;;;6.30;;
4744;SDS011;2386;42.138;24.746;2022-07-23T10:03:54;13.00;;;6.13;;
4744;SDS011;2386;42.138;24.746;2022-07-23T10:06:19;8.87;;;6.10;;
4744;SDS011;2386;42.138;24.746;2022-07-23T10:08:46;18.37;;;6.70;;
4744;SDS011;2386;42.138;24.746;2022-07-23T10:11:13;9.00;;;6.07;;
4744;SDS011;2386;42.138;24.746;2022-07-23T10:13:39;10.57;;;5.23;;
4744;SDS011;2386;42.138;24.746;2022-07-23T10:16:22;9.70;;;5.57;;
4744;SDS011;2386;42.138;24.746;2022-07-23T10:18:47;13.60;;;5.50;;
4744;SDS011;2386;42.138;24.746;2022-07-23T10:21:16;5.17;;;4.70;;
4744;SDS011;2386;42.138;24.746;2022-07-23T10:29:55;10.33;;;5.90;;
4744;SDS011;2386;42.138;24.746;2022-07-23T10:37:44;13.10;;;5.73;;
4744;SDS011;2386;42.138;24.746;2022-07-23T10:42:42;9.60;;;5.87;;
4744;SDS011;2386;42.138;24.746;2022-07-23T10:45:24;19.53;;;6.03;;
4744;SDS011;2386;42.138;24.746;2022-07-23T10:47:50;32.03;;;18.50;;
4744;SDS011;2386;42.138;24.746;2022-07-23T10:50:26;20.47;;;13.53;;
4744;SDS011;2386;42.138;24.746;2022-07-23T10:56:16;11.30;;;6.40;;
4744;SDS011;2386;42.138;24.746;2022-07-23T10:59:03;15.50;;;6.23;;
4744;SDS011;2386;42.138;24.746;2022-07-23T11:01:31;12.40;;;6.30;;
4744;SDS011;2386;42.138;24.746;2022-07-23T11:04:00;20.77;;;5.50;;
4744;SDS011;2386;42.138;24.746;2022-07-23T11:09:28;12.80;;;5.17;;
4744;SDS011;2386;42.138;24.746;2022-07-23T11:17:25;9.07;;;5.20;;
4744;SDS011;2386;42.138;24.746;2022-07-23T11:27:47;10.53;;;4.97;;
4744;SDS011;2386;42.138;24.746;2022-07-23T11:32:52;12.40;;;5.80;;
4744;SDS011;2386;42.138;24.746;2022-07-23T11:35:23;10.07;;;5.77;;
4744;SDS011;2386;42.138;24.746;2022-07-23T11:37:51;17.17;;;5.50;;
4744;SDS011;2386;42.138;24.746;2022-07-23T11:40:19;10.53;;;5.90;;
4744;SDS011;2386;42.138;24.746;2022-07-23T11:43:18;15.57;;;5.10;;
4744;SDS011;2386;42.138;24.746;2022-07-23T11:45:38;18.13;;;5.60;;
4744;SDS011;2386;42.138;24.746;2022-07-23T11:48:05;11.43;;;5.13;;
4744;SDS011;2386;42.138;24.746;2022-07-23T11:50:33;22.23;;;5.50;;
4744;SDS011;2386;42.138;24.746;2022-07-23T11:52:59;12.20;;;5.83;;
4744;SDS011;2386;42.138;24.746;2022-07-23T11:55:24;16.90;;;5.47;;
4744;SDS011;2386;42.138;24.746;2022-07-23T11:57:51;11.60;;;5.20;;
4744;SDS011;2386;42.138;24.746;2022-07-23T12:00:19;8.67;;;5.00;;
4744;SDS011;2386;42.138;24.746;2022-07-23T12:02:51;11.53;;;4.77;;
4744;SDS011;2386;42.138;24.746;2022-07-23T12:05:19;13.50;;;6.40;;
4744;SDS011;2386;42.138;24.746;2022-07-23T12:07:47;16.57;;;11.33;;
4744;SDS011;2386;42.138;24.746;2022-07-23T12:10:20;14.90;;;6.57;;
4744;SDS011;2386;42.138;24.746;2022-07-23T12:12:51;27.17;;;14.98;;
4744;SDS011;2386;42.138;24.746;2022-07-23T12:15:20;4.82;;;4.32;;
4744;SDS011;2386;42.138;24.746;2022-07-23T12:17:52;8.13;;;4.13;;
4744;SDS011;2386;42.138;24.746;2022-07-23T12:20:26;11.32;;;4.18;;
4744;SDS011;2386;42.138;24.746;2022-07-23T12:22:58;11.60;;;3.63;;
4744;SDS011;2386;42.138;24.746;2022-07-23T12:25:27;13.57;;;4.03;;
4744;SDS011;2386;42.138;24.746;2022-07-23T12:28:03;13.25;;;3.20;;
4744;SDS011;2386;42.138;24.746;2022-07-23T12:30:37;8.63;;;3.25;;
4744;SDS011;2386;42.138;24.746;2022-07-23T12:33:08;6.75;;;3.63;;
4744;SDS011;2386;42.138;24.746;2022-07-23T12:35:42;9.15;;;3.67;;
4744;SDS011;2386;42.138;24.746;2022-07-23T12:38:11;6.47;;;3.30;;
4744;SDS011;2386;42.138;24.746;2022-07-23T12:40:42;12.55;;;3.47;;
4744;SDS011;2386;42.138;24.746;2022-07-23T12:43:09;6.30;;;3.15;;
4744;SDS011;2386;42.138;24.746;2022-07-23T12:48:19;6.72;;;3.00;;
4744;SDS011;2386;42.138;24.746;2022-07-23T12:51:01;9.55;;;3.35;;
4744;SDS011;2386;42.138;24.746;2022-07-23T12:53:48;10.70;;;3.05;;
4744;SDS011;2386;42.138;24.746;2022-07-23T12:56:19;9.45;;;4.95;;
4744;SDS011;2386;42.138;24.746;2022-07-23T12:58:49;11.40;;;9.85;;
4744;SDS011;2386;42.138;24.746;2022-07-23T13:04:21;5.95;;;4.68;;
4744;SDS011;2386;42.138;24.746;2022-07-23T13:06:48;5.78;;;3.40;;
4744;SDS011;2386;42.138;24.746;2022-07-23T13:09:16;5.93;;;2.80;;
4744;SDS011;2386;42.138;24.746;2022-07-23T13:12:02;11.52;;;3.20;;
4744;SDS011;2386;42.138;24.746;2022-07-23T13:14:28;7.40;;;2.90;;
4744;SDS011;2386;42.138;24.746;2022-07-23T13:16:53;5.10;;;2.97;;
4744;SDS011;2386;42.138;24.746;2022-07-23T13:19:20;9.63;;;3.65;;
4744;SDS011;2386;42.138;24.746;2022-07-23T13:21:48;6.30;;;3.10;;
4744;SDS011;2386;42.138;24.746;2022-07-23T13:24:14;5.22;;;2.60;;
4744;SDS011;2386;42.138;24.746;2022-07-23T13:26:40;8.38;;;3.15;;
4744;SDS011;2386;42.138;24.746;2022-07-23T13:29:06;13.20;;;3.05;;
4744;SDS011;2386;42.138;24.746;2022-07-23T13:31:32;8.18;;;2.85;;
4744;SDS011;2386;42.138;24.746;2022-07-23T13:33:58;11.95;;;3.45;;
4744;SDS011;2386;42.138;24.746;2022-07-23T13:36:23;8.05;;;3.05;;
4744;SDS011;2386;42.138;24.746;2022-07-23T13:38:49;7.95;;;2.95;;
4744;SDS011;2386;42.138;24.746;2022-07-23T13:41:16;6.35;;;2.90;;
4744;SDS011;2386;42.138;24.746;2022-07-23T13:43:44;10.13;;;2.80;;
4744;SDS011;2386;42.138;24.746;2022-07-23T13:46:10;7.75;;;2.85;;
4744;SDS011;2386;42.138;24.746;2022-07-23T13:48:35;5.15;;;3.08;;
4744;SDS011;2386;42.138;24.746;2022-07-23T13:51:00;6.85;;;3.08;;
4744;SDS011;2386;42.138;24.746;2022-07-23T13:53:26;4.57;;;2.65;;
4744;SDS011;2386;42.138;24.746;2022-07-23T13:55:52;7.07;;;2.47;;
4744;SDS011;2386;42.138;24.746;2022-07-23T13:58:18;8.80;;;3.22;;
4744;SDS011;2386;42.138;24.746;2022-07-23T14:00:45;9.63;;;2.80;;
4744;SDS011;2386;42.138;24.746;2022-07-23T14:03:13;11.05;;;3.17;;
4744;SDS011;2386;42.138;24.746;2022-07-23T14:05:38;11.13;;;2.70;;
4744;SDS011;2386;42.138;24.746;2022-07-23T14:08:04;3.70;;;2.95;;
4744;SDS011;2386;42.138;24.746;2022-07-23T14:10:30;5.97;;;2.88;;
4744;SDS011;2386;42.138;24.746;2022-07-23T14:12:56;4.85;;;2.85;;
4744;SDS011;2386;42.138;24.746;2022-07-23T14:15:23;7.40;;;3.05;;
4744;SDS011;2386;42.138;24.746;2022-07-23T14:17:49;5.90;;;4.78;;
4744;SDS011;2386;42.138;24.746;2022-07-23T14:20:15;9.88;;;4.00;;
4744;SDS011;2386;42.138;24.746;2022-07-23T14:22:41;12.20;;;3.63;;
4744;SDS011;2386;42.138;24.746;2022-07-23T14:25:07;7.97;;;3.55;;
4744;SDS011;2386;42.138;24.746;2022-07-23T14:27:34;7.57;;;3.40;;
4744;SDS011;2386;42.138;24.746;2022-07-23T14:29:59;5.50;;;3.22;;
4744;SDS011;2386;42.138;24.746;2022-07-23T14:32:25;6.18;;;2.85;;
4744;SDS011;2386;42.138;24.746;2022-07-23T14:34:51;4.60;;;3.00;;
4744;SDS011;2386;42.138;24.746;2022-07-23T14:37:17;7.90;;;3.00;;
4744;SDS011;2386;42.138;24.746;2022-07-23T14:39:44;8.45;;;2.75;;
4744;SDS011;2386;42.138;24.746;2022-07-23T14:42:10;5.65;;;3.33;;
4744;SDS011;2386;42.138;24.746;2022-07-23T14:44:36;13.68;;;2.90;;
4744;SDS011;2386;42.138;24.746;2022-07-23T14:47:02;3.97;;;3.10;;
4744;SDS011;2386;42.138;24.746;2022-07-23T14:49:30;11.07;;;2.95;;
4744;SDS011;2386;42.138;24.746;2022-07-23T14:51:59;5.85;;;3.33;;
4744;SDS011;2386;42.138;24.746;2022-07-23T14:54:25;5.88;;;3.22;;
4744;SDS011;2386;42.138;24.746;2022-07-23T14:56:52;6.75;;;3.30;;
4744;SDS011;2386;42.138;24.746;2022-07-23T14:59:21;13.57;;;3.40;;
4744;SDS011;2386;42.138;24.746;2022-07-23T15:01:46;6.03;;;2.65;;
4744;SDS011;2386;42.138;24.746;2022-07-23T15:04:12;4.57;;;3.20;;
4744;SDS011;2386;42.138;24.746;2022-07-23T15:06:38;7.47;;;2.88;;
4744;SDS011;2386;42.138;24.746;2022-07-23T15:09:04;7.55;;;3.50;;
4744;SDS011;2386;42.138;24.746;2022-07-23T15:11:29;6.78;;;3.20;;
4744;SDS011;2386;42.138;24.746;2022-07-23T15:13:58;10.20;;;3.60;;
4744;SDS011;2386;42.138;24.746;2022-07-23T15:16:27;10.93;;;3.63;;
4744;SDS011;2386;42.138;24.746;2022-07-23T15:18:53;7.75;;;3.40;;
4744;SDS011;2386;42.138;24.746;2022-07-23T15:21:19;8.75;;;3.50;;
4744;SDS011;2386;42.138;24.746;2022-07-23T15:23:45;14.15;;;4.32;;
4744;SDS011;2386;42.138;24.746;2022-07-23T15:26:11;13.98;;;3.92;;
4744;SDS011;2386;42.138;24.746;2022-07-23T15:28:37;10.18;;;4.15;;
4744;SDS011;2386;42.138;24.746;2022-07-23T15:31:03;11.25;;;4.63;;
4744;SDS011;2386;42.138;24.746;2022-07-23T15:33:28;12.20;;;4.38;;
4744;SDS011;2386;42.138;24.746;2022-07-23T15:35:54;8.70;;;4.30;;